sensor_id;sensor_type;location;lat;lon;timestamp;temperature;humidity
67862;DHT22;54665;51.462;6.698;2023-05-21T00:00:41;15.24;73.75
67862;DHT22;54665;51.462;6.698;2023-05-21T00:03:06;15.28;73.75
67862;DHT22;54665;51.462;6.698;2023-05-21T00:05:41;15.23;73.96
67862;DHT22;54665;51.462;6.698;2023-05-21T00:08:07;15.24;73.73
67862;DHT22;54665;51.462;6.698;2023-05-21T00:10:33;15.25;73.73
67862;DHT22;54665;51.462;6.698;2023-05-21T00:12:58;15.20;73.92
67862;DHT22;54665;51.462;6.698;2023-05-21T00:15:24;15.24;73.73
67862;DHT22;54665;51.462;6.698;2023-05-21T00:17:49;15.24;73.81
67862;DHT22;54665;51.462;6.698;2023-05-21T00:20:15;15.10;74.08
67862;DHT22;54665;51.462;6.698;2023-05-21T00:22:41;15.28;73.78
67862;DHT22;54665;51.462;6.698;2023-05-21T00:25:07;15.25;73.84
67862;DHT22;54665;51.462;6.698;2023-05-21T00:27:32;15.32;73.32
67862;DHT22;54665;51.462;6.698;2023-05-21T00:29:58;15.36;73.20
67862;DHT22;54665;51.462;6.698;2023-05-21T00:32:23;15.51;72.83
67862;DHT22;54665;51.462;6.698;2023-05-21T00:34:49;15.63;72.47
67862;DHT22;54665;51.462;6.698;2023-05-21T00:37:14;15.70;72.34
67862;DHT22;54665;51.462;6.698;2023-05-21T00:39:40;15.56;72.74
67862;DHT22;54665;51.462;6.698;2023-05-21T00:42:06;15.52;73.40
67862;DHT22;54665;51.462;6.698;2023-05-21T00:44:31;15.58;72.95
67862;DHT22;54665;51.462;6.698;2023-05-21T00:47:01;15.62;73.17
67862;DHT22;54665;51.462;6.698;2023-05-21T00:49:26;15.72;72.66
67862;DHT22;54665;51.462;6.698;2023-05-21T00:51:52;15.59;73.00
67862;DHT22;54665;51.462;6.698;2023-05-21T00:54:19;15.58;73.25
67862;DHT22;54665;51.462;6.698;2023-05-21T00:56:45;15.83;72.30
67862;DHT22;54665;51.462;6.698;2023-05-21T00:59:11;15.78;72.60
67862;DHT22;54665;51.462;6.698;2023-05-21T01:01:36;15.73;72.97
67862;DHT22;54665;51.462;6.698;2023-05-21T01:04:02;15.48;73.76
67862;DHT22;54665;51.462;6.698;2023-05-21T01:06:28;15.59;73.60
67862;DHT22;54665;51.462;6.698;2023-05-21T01:08:55;15.61;73.71
67862;DHT22;54665;51.462;6.698;2023-05-21T01:11:36;15.49;73.88
67862;DHT22;54665;51.462;6.698;2023-05-21T01:14:02;15.41;74.27
67862;DHT22;54665;51.462;6.698;2023-05-21T01:16:28;15.39;74.34
67862;DHT22;54665;51.462;6.698;2023-05-21T01:18:53;15.31;74.36
67862;DHT22;54665;51.462;6.698;2023-05-21T01:21:20;15.20;74.65
67862;DHT22;54665;51.462;6.698;2023-05-21T01:23:49;15.30;74.43
67862;DHT22;54665;51.462;6.698;2023-05-21T01:26:14;15.36;74.02
67862;DHT22;54665;51.462;6.698;2023-05-21T01:28:40;15.24;74.39
67862;DHT22;54665;51.462;6.698;2023-05-21T01:31:17;15.21;74.21
67862;DHT22;54665;51.462;6.698;2023-05-21T01:33:47;15.42;73.78
67862;DHT22;54665;51.462;6.698;2023-05-21T01:36:32;15.35;73.79
67862;DHT22;54665;51.462;6.698;2023-05-21T01:39:01;15.32;73.93
67862;DHT22;54665;51.462;6.698;2023-05-21T01:41:32;15.30;73.94
67862;DHT22;54665;51.462;6.698;2023-05-21T01:43:59;15.24;74.17
67862;DHT22;54665;51.462;6.698;2023-05-21T01:46:29;15.28;74.20
67862;DHT22;54665;51.462;6.698;2023-05-21T01:48:55;15.27;74.02
67862;DHT22;54665;51.462;6.698;2023-05-21T01:51:22;15.18;74.45
67862;DHT22;54665;51.462;6.698;2023-05-21T01:53:48;15.23;74.31
67862;DHT22;54665;51.462;6.698;2023-05-21T01:56:13;15.27;74.04
67862;DHT22;54665;51.462;6.698;2023-05-21T01:58:40;15.27;74.18
67862;DHT22;54665;51.462;6.698;2023-05-21T02:01:05;15.12;74.46
67862;DHT22;54665;51.462;6.698;2023-05-21T02:03:31;15.15;74.66
67862;DHT22;54665;51.462;6.698;2023-05-21T02:05:57;15.25;74.66
67862;DHT22;54665;51.462;6.698;2023-05-21T02:08:23;15.28;74.25
67862;DHT22;54665;51.462;6.698;2023-05-21T02:10:49;15.21;74.77
67862;DHT22;54665;51.462;6.698;2023-05-21T02:13:15;15.21;74.90
67862;DHT22;54665;51.462;6.698;2023-05-21T02:15:44;15.18;74.93
67862;DHT22;54665;51.462;6.698;2023-05-21T02:18:11;15.04;75.26
67862;DHT22;54665;51.462;6.698;2023-05-21T02:20:41;15.20;75.08
67862;DHT22;54665;51.462;6.698;2023-05-21T02:23:06;15.25;74.76
67862;DHT22;54665;51.462;6.698;2023-05-21T02:25:32;15.15;75.24
67862;DHT22;54665;51.462;6.698;2023-05-21T02:27:57;15.14;75.08
67862;DHT22;54665;51.462;6.698;2023-05-21T02:30:23;15.04;75.58
67862;DHT22;54665;51.462;6.698;2023-05-21T02:32:49;15.01;75.55
67862;DHT22;54665;51.462;6.698;2023-05-21T02:35:14;15.25;74.96
67862;DHT22;54665;51.462;6.698;2023-05-21T02:37:41;15.05;75.54
67862;DHT22;54665;51.462;6.698;2023-05-21T02:40:08;15.10;75.30
67862;DHT22;54665;51.462;6.698;2023-05-21T02:42:35;15.17;75.20
67862;DHT22;54665;51.462;6.698;2023-05-21T02:45:01;15.24;75.06
67862;DHT22;54665;51.462;6.698;2023-05-21T02:47:26;15.21;75.13
67862;DHT22;54665;51.462;6.698;2023-05-21T02:49:52;15.15;75.17
67862;DHT22;54665;51.462;6.698;2023-05-21T02:52:18;15.07;75.49
67862;DHT22;54665;51.462;6.698;2023-05-21T02:54:46;14.95;76.00
67862;DHT22;54665;51.462;6.698;2023-05-21T02:57:12;14.91;76.11
67862;DHT22;54665;51.462;6.698;2023-05-21T02:59:37;14.98;75.56
67862;DHT22;54665;51.462;6.698;2023-05-21T03:02:03;15.01;75.67
67862;DHT22;54665;51.462;6.698;2023-05-21T03:04:28;15.04;75.76
67862;DHT22;54665;51.462;6.698;2023-05-21T03:06:55;14.95;76.25
67862;DHT22;54665;51.462;6.698;2023-05-21T03:09:21;14.95;75.89
67862;DHT22;54665;51.462;6.698;2023-05-21T03:11:47;15.01;75.83
67862;DHT22;54665;51.462;6.698;2023-05-21T03:14:13;14.93;75.97
67862;DHT22;54665;51.462;6.698;2023-05-21T03:16:38;14.97;75.65
67862;DHT22;54665;51.462;6.698;2023-05-21T03:19:09;14.84;76.19
67862;DHT22;54665;51.462;6.698;2023-05-21T03:21:36;14.81;76.28
67862;DHT22;54665;51.462;6.698;2023-05-21T03:24:02;14.79;76.42
67862;DHT22;54665;51.462;6.698;2023-05-21T03:26:28;14.84;76.30
67862;DHT22;54665;51.462;6.698;2023-05-21T03:28:55;14.66;76.80
67862;DHT22;54665;51.462;6.698;2023-05-21T03:31:22;14.66;77.07
67862;DHT22;54665;51.462;6.698;2023-05-21T03:34:04;14.64;76.97
67862;DHT22;54665;51.462;6.698;2023-05-21T03:36:30;14.73;76.65
67862;DHT22;54665;51.462;6.698;2023-05-21T03:38:56;14.94;75.73
67862;DHT22;54665;51.462;6.698;2023-05-21T03:41:22;14.83;76.07
67862;DHT22;54665;51.462;6.698;2023-05-21T03:43:52;14.84;75.91
67862;DHT22;54665;51.462;6.698;2023-05-21T03:46:20;14.87;75.84
67862;DHT22;54665;51.462;6.698;2023-05-21T03:48:48;14.83;76.33
67862;DHT22;54665;51.462;6.698;2023-05-21T03:51:19;14.98;75.64
67862;DHT22;54665;51.462;6.698;2023-05-21T03:53:45;15.05;75.39
67862;DHT22;54665;51.462;6.698;2023-05-21T03:56:10;14.97;75.70
67862;DHT22;54665;51.462;6.698;2023-05-21T03:58:36;14.83;76.03
67862;DHT22;54665;51.462;6.698;2023-05-21T04:01:01;14.93;75.75
67862;DHT22;54665;51.462;6.698;2023-05-21T04:03:29;14.94;75.61
67862;DHT22;54665;51.462;6.698;2023-05-21T04:05:57;14.85;76.11
67862;DHT22;54665;51.462;6.698;2023-05-21T04:08:23;14.87;76.03
67862;DHT22;54665;51.462;6.698;2023-05-21T04:10:48;14.84;76.16
67862;DHT22;54665;51.462;6.698;2023-05-21T04:13:14;14.97;75.45
67862;DHT22;54665;51.462;6.698;2023-05-21T04:15:40;15.07;75.58
67862;DHT22;54665;51.462;6.698;2023-05-21T04:18:07;15.07;75.44
67862;DHT22;54665;51.462;6.698;2023-05-21T04:20:33;14.77;75.95
67862;DHT22;54665;51.462;6.698;2023-05-21T04:22:59;14.94;75.72
67862;DHT22;54665;51.462;6.698;2023-05-21T04:25:25;14.94;75.88
67862;DHT22;54665;51.462;6.698;2023-05-21T04:27:51;14.98;75.81
67862;DHT22;54665;51.462;6.698;2023-05-21T04:30:18;15.14;75.22
67862;DHT22;54665;51.462;6.698;2023-05-21T04:32:44;15.14;75.26
67862;DHT22;54665;51.462;6.698;2023-05-21T04:35:13;15.04;75.60
67862;DHT22;54665;51.462;6.698;2023-05-21T04:37:39;15.18;75.35
67862;DHT22;54665;51.462;6.698;2023-05-21T04:40:09;15.12;75.32
67862;DHT22;54665;51.462;6.698;2023-05-21T04:42:35;15.15;75.31
67862;DHT22;54665;51.462;6.698;2023-05-21T04:45:01;15.14;75.31
67862;DHT22;54665;51.462;6.698;2023-05-21T04:47:28;15.10;75.64
67862;DHT22;54665;51.462;6.698;2023-05-21T04:50:00;15.25;75.08
67862;DHT22;54665;51.462;6.698;2023-05-21T04:52:26;15.20;75.60
67862;DHT22;54665;51.462;6.698;2023-05-21T04:54:51;15.25;75.78
67862;DHT22;54665;51.462;6.698;2023-05-21T04:57:18;15.15;75.51
67862;DHT22;54665;51.462;6.698;2023-05-21T04:59:44;15.30;75.26
67862;DHT22;54665;51.462;6.698;2023-05-21T05:02:09;15.42;75.07
67862;DHT22;54665;51.462;6.698;2023-05-21T05:04:34;15.44;74.68
67862;DHT22;54665;51.462;6.698;2023-05-21T05:07:00;15.27;75.27
67862;DHT22;54665;51.462;6.698;2023-05-21T05:09:26;15.45;74.64
67862;DHT22;54665;51.462;6.698;2023-05-21T05:11:54;15.46;75.07
67862;DHT22;54665;51.462;6.698;2023-05-21T05:14:19;15.44;75.08
67862;DHT22;54665;51.462;6.698;2023-05-21T05:16:45;15.56;74.70
67862;DHT22;54665;51.462;6.698;2023-05-21T05:19:13;15.63;74.53
67862;DHT22;54665;51.462;6.698;2023-05-21T05:21:39;15.70;74.33
67862;DHT22;54665;51.462;6.698;2023-05-21T05:24:05;15.59;74.90
67862;DHT22;54665;51.462;6.698;2023-05-21T05:26:31;15.66;74.98
67862;DHT22;54665;51.462;6.698;2023-05-21T05:28:56;15.72;74.30
67862;DHT22;54665;51.462;6.698;2023-05-21T05:31:22;15.85;74.10
67862;DHT22;54665;51.462;6.698;2023-05-21T05:33:47;15.63;74.80
67862;DHT22;54665;51.462;6.698;2023-05-21T05:36:13;15.75;74.20
67862;DHT22;54665;51.462;6.698;2023-05-21T05:38:39;15.86;73.79
67862;DHT22;54665;51.462;6.698;2023-05-21T05:41:04;15.89;73.94
67862;DHT22;54665;51.462;6.698;2023-05-21T05:43:30;16.06;73.37
67862;DHT22;54665;51.462;6.698;2023-05-21T05:45:57;16.20;72.69
67862;DHT22;54665;51.462;6.698;2023-05-21T05:48:23;15.97;73.63
67862;DHT22;54665;51.462;6.698;2023-05-21T05:50:48;15.96;73.17
67862;DHT22;54665;51.462;6.698;2023-05-21T05:53:14;16.36;72.26
67862;DHT22;54665;51.462;6.698;2023-05-21T05:55:40;16.16;72.33
67862;DHT22;54665;51.462;6.698;2023-05-21T05:58:06;16.23;72.51
67862;DHT22;54665;51.462;6.698;2023-05-21T06:00:42;16.63;71.86
67862;DHT22;54665;51.462;6.698;2023-05-21T06:03:07;16.57;71.52
67862;DHT22;54665;51.462;6.698;2023-05-21T06:05:33;16.63;71.64
67862;DHT22;54665;51.462;6.698;2023-05-21T06:07:58;16.92;71.16
67862;DHT22;54665;51.462;6.698;2023-05-21T06:10:24;16.92;71.14
67862;DHT22;54665;51.462;6.698;2023-05-21T06:12:49;17.57;69.61
67862;DHT22;54665;51.462;6.698;2023-05-21T06:15:14;17.66;68.97
67862;DHT22;54665;51.462;6.698;2023-05-21T06:17:41;17.60;69.18
67862;DHT22;54665;51.462;6.698;2023-05-21T06:20:10;17.63;69.97
67862;DHT22;54665;51.462;6.698;2023-05-21T06:22:36;17.69;69.31
67862;DHT22;54665;51.462;6.698;2023-05-21T06:25:03;17.69;69.41
67862;DHT22;54665;51.462;6.698;2023-05-21T06:27:29;17.62;69.21
67862;DHT22;54665;51.462;6.698;2023-05-21T06:29:55;17.45;69.31
67862;DHT22;54665;51.462;6.698;2023-05-21T06:32:23;17.40;69.47
67862;DHT22;54665;51.462;6.698;2023-05-21T06:34:48;17.54;69.86
67862;DHT22;54665;51.462;6.698;2023-05-21T06:37:19;17.46;70.34
67862;DHT22;54665;51.462;6.698;2023-05-21T06:39:47;17.66;68.98
67862;DHT22;54665;51.462;6.698;2023-05-21T06:42:13;18.14;67.53
67862;DHT22;54665;51.462;6.698;2023-05-21T06:44:45;18.56;66.60
67862;DHT22;54665;51.462;6.698;2023-05-21T06:47:24;19.19;64.83
67862;DHT22;54665;51.462;6.698;2023-05-21T06:49:49;19.14;65.91
67862;DHT22;54665;51.462;6.698;2023-05-21T06:52:15;18.73;66.44
67862;DHT22;54665;51.462;6.698;2023-05-21T06:54:41;18.85;66.45
67862;DHT22;54665;51.462;6.698;2023-05-21T06:57:06;19.24;65.36
67862;DHT22;54665;51.462;6.698;2023-05-21T06:59:32;19.85;63.52
67862;DHT22;54665;51.462;6.698;2023-05-21T07:01:58;19.96;63.12
67862;DHT22;54665;51.462;6.698;2023-05-21T07:04:24;19.51;65.02
67862;DHT22;54665;51.462;6.698;2023-05-21T07:06:49;19.93;63.87
67862;DHT22;54665;51.462;6.698;2023-05-21T07:09:16;20.20;63.34
67862;DHT22;54665;51.462;6.698;2023-05-21T07:11:42;20.54;62.10
67862;DHT22;54665;51.462;6.698;2023-05-21T07:14:09;20.50;61.54
67862;DHT22;54665;51.462;6.698;2023-05-21T07:16:35;20.16;63.31
67862;DHT22;54665;51.462;6.698;2023-05-21T07:19:01;19.91;63.43
67862;DHT22;54665;51.462;6.698;2023-05-21T07:21:27;20.02;63.48
67862;DHT22;54665;51.462;6.698;2023-05-21T07:23:52;19.74;63.57
67862;DHT22;54665;51.462;6.698;2023-05-21T07:26:20;19.68;65.31
67862;DHT22;54665;51.462;6.698;2023-05-21T07:28:46;19.75;64.52
67862;DHT22;54665;51.462;6.698;2023-05-21T07:31:12;20.06;63.68
67862;DHT22;54665;51.462;6.698;2023-05-21T07:33:42;19.88;64.23
67862;DHT22;54665;51.462;6.698;2023-05-21T07:36:09;20.25;63.93
67862;DHT22;54665;51.462;6.698;2023-05-21T07:38:35;19.54;66.28
67862;DHT22;54665;51.462;6.698;2023-05-21T07:41:01;20.20;65.06
67862;DHT22;54665;51.462;6.698;2023-05-21T07:43:26;19.71;65.93
67862;DHT22;54665;51.462;6.698;2023-05-21T07:45:52;20.09;65.84
67862;DHT22;54665;51.462;6.698;2023-05-21T07:48:17;19.86;65.09
67862;DHT22;54665;51.462;6.698;2023-05-21T07:50:59;20.26;63.75
67862;DHT22;54665;51.462;6.698;2023-05-21T07:53:25;20.26;64.04
67862;DHT22;54665;51.462;6.698;2023-05-21T07:55:52;20.44;63.61
67862;DHT22;54665;51.462;6.698;2023-05-21T07:58:22;20.57;63.37
67862;DHT22;54665;51.462;6.698;2023-05-21T08:00:48;20.39;63.81
67862;DHT22;54665;51.462;6.698;2023-05-21T08:03:16;20.83;62.98
67862;DHT22;54665;51.462;6.698;2023-05-21T08:05:43;20.95;62.36
67862;DHT22;54665;51.462;6.698;2023-05-21T08:08:13;20.85;62.34
67862;DHT22;54665;51.462;6.698;2023-05-21T08:10:39;20.64;62.83
67862;DHT22;54665;51.462;6.698;2023-05-21T08:13:04;20.69;63.31
67862;DHT22;54665;51.462;6.698;2023-05-21T08:15:30;20.66;63.31
67862;DHT22;54665;51.462;6.698;2023-05-21T08:17:56;21.02;64.05
67862;DHT22;54665;51.462;6.698;2023-05-21T08:20:22;21.12;62.52
67862;DHT22;54665;51.462;6.698;2023-05-21T08:22:48;21.72;60.63
67862;DHT22;54665;51.462;6.698;2023-05-21T08:25:15;21.24;61.84
67862;DHT22;54665;51.462;6.698;2023-05-21T08:27:40;20.63;63.52
67862;DHT22;54665;51.462;6.698;2023-05-21T08:30:07;21.53;62.03
67862;DHT22;54665;51.462;6.698;2023-05-21T08:32:36;20.73;62.78
67862;DHT22;54665;51.462;6.698;2023-05-21T08:35:02;21.32;61.85
67862;DHT22;54665;51.462;6.698;2023-05-21T08:37:46;20.98;62.61
67862;DHT22;54665;51.462;6.698;2023-05-21T08:40:17;21.42;61.27
67862;DHT22;54665;51.462;6.698;2023-05-21T08:42:47;21.67;60.93
67862;DHT22;54665;51.462;6.698;2023-05-21T08:45:22;22.25;60.95
67862;DHT22;54665;51.462;6.698;2023-05-21T08:47:55;22.61;58.52
67862;DHT22;54665;51.462;6.698;2023-05-21T08:50:26;22.96;57.78
67862;DHT22;54665;51.462;6.698;2023-05-21T08:52:52;23.22;56.29
67862;DHT22;54665;51.462;6.698;2023-05-21T08:55:20;23.13;57.78
67862;DHT22;54665;51.462;6.698;2023-05-21T08:57:46;23.56;56.31
67862;DHT22;54665;51.462;6.698;2023-05-21T09:00:16;23.54;55.35
67862;DHT22;54665;51.462;6.698;2023-05-21T09:02:41;23.84;54.88
67862;DHT22;54665;51.462;6.698;2023-05-21T09:05:09;23.18;57.79
67862;DHT22;54665;51.462;6.698;2023-05-21T09:07:58;23.93;55.29
67862;DHT22;54665;51.462;6.698;2023-05-21T09:10:39;23.87;55.61
67862;DHT22;54665;51.462;6.698;2023-05-21T09:13:05;23.69;55.68
67862;DHT22;54665;51.462;6.698;2023-05-21T09:15:32;23.35;57.13
67862;DHT22;54665;51.462;6.698;2023-05-21T09:17:58;23.46;57.50
67862;DHT22;54665;51.462;6.698;2023-05-21T09:20:43;22.84;58.00
67862;DHT22;54665;51.462;6.698;2023-05-21T09:23:09;22.54;59.70
67862;DHT22;54665;51.462;6.698;2023-05-21T09:25:40;22.20;60.02
67862;DHT22;54665;51.462;6.698;2023-05-21T09:28:15;22.40;60.74
67862;DHT22;54665;51.462;6.698;2023-05-21T09:30:45;22.18;60.56
67862;DHT22;54665;51.462;6.698;2023-05-21T09:33:11;22.41;60.45
67862;DHT22;54665;51.462;6.698;2023-05-21T09:35:43;22.71;58.76
67862;DHT22;54665;51.462;6.698;2023-05-21T09:38:09;22.84;58.77
67862;DHT22;54665;51.462;6.698;2023-05-21T09:40:34;22.54;60.39
67862;DHT22;54665;51.462;6.698;2023-05-21T09:43:00;22.75;59.35
67862;DHT22;54665;51.462;6.698;2023-05-21T09:45:26;22.68;60.81
67862;DHT22;54665;51.462;6.698;2023-05-21T09:47:55;22.18;61.44
67862;DHT22;54665;51.462;6.698;2023-05-21T09:50:22;21.88;62.31
67862;DHT22;54665;51.462;6.698;2023-05-21T09:52:49;22.39;61.52
67862;DHT22;54665;51.462;6.698;2023-05-21T09:55:17;23.01;58.74
67862;DHT22;54665;51.462;6.698;2023-05-21T09:57:44;23.64;59.30
67862;DHT22;54665;51.462;6.698;2023-05-21T10:02:47;22.96;58.11
67862;DHT22;54665;51.462;6.698;2023-05-21T10:05:14;24.07;57.82
67862;DHT22;54665;51.462;6.698;2023-05-21T10:07:50;23.78;58.51
67862;DHT22;54665;51.462;6.698;2023-05-21T10:10:18;23.98;57.88
67862;DHT22;54665;51.462;6.698;2023-05-21T10:12:46;23.70;57.87
67862;DHT22;54665;51.462;6.698;2023-05-21T10:15:13;23.88;58.09
67862;DHT22;54665;51.462;6.698;2023-05-21T10:17:41;24.11;56.58
67862;DHT22;54665;51.462;6.698;2023-05-21T10:20:09;23.11;59.59
67862;DHT22;54665;51.462;6.698;2023-05-21T10:22:36;22.92;59.22
67862;DHT22;54665;51.462;6.698;2023-05-21T10:25:02;23.32;59.74
67862;DHT22;54665;51.462;6.698;2023-05-21T10:27:31;23.57;57.80
67862;DHT22;54665;51.462;6.698;2023-05-21T10:29:58;23.50;58.91
67862;DHT22;54665;51.462;6.698;2023-05-21T10:32:25;23.43;59.69
67862;DHT22;54665;51.462;6.698;2023-05-21T10:34:55;23.38;59.68
67862;DHT22;54665;51.462;6.698;2023-05-21T10:37:23;23.36;60.02
67862;DHT22;54665;51.462;6.698;2023-05-21T10:39:51;22.95;60.77
67862;DHT22;54665;51.462;6.698;2023-05-21T10:58:09;23.66;59.30
67862;DHT22;54665;51.462;6.698;2023-05-21T11:00:41;23.59;60.28
67862;DHT22;54665;51.462;6.698;2023-05-21T11:03:07;22.81;61.15
67862;DHT22;54665;51.462;6.698;2023-05-21T11:08:24;21.86;63.16
67862;DHT22;54665;51.462;6.698;2023-05-21T11:10:56;21.79;63.60
67862;DHT22;54665;51.462;6.698;2023-05-21T11:13:23;22.07;62.08
67862;DHT22;54665;51.462;6.698;2023-05-21T11:23:54;23.57;59.44
67862;DHT22;54665;51.462;6.698;2023-05-21T11:26:25;23.80;60.23
67862;DHT22;54665;51.462;6.698;2023-05-21T11:31:29;23.57;59.51
67862;DHT22;54665;51.462;6.698;2023-05-21T11:34:21;23.22;60.37
67862;DHT22;54665;51.462;6.698;2023-05-21T11:40:15;23.71;60.17
67862;DHT22;54665;51.462;6.698;2023-05-21T11:42:41;23.92;59.07
67862;DHT22;54665;51.462;6.698;2023-05-21T11:45:09;23.29;60.48
67862;DHT22;54665;51.462;6.698;2023-05-21T11:47:34;23.33;60.46
67862;DHT22;54665;51.462;6.698;2023-05-21T11:50:02;23.98;60.51
67862;DHT22;54665;51.462;6.698;2023-05-21T11:52:29;23.59;59.85
67862;DHT22;54665;51.462;6.698;2023-05-21T11:54:55;23.47;61.11
67862;DHT22;54665;51.462;6.698;2023-05-21T11:57:23;23.98;59.93
67862;DHT22;54665;51.462;6.698;2023-05-21T11:59:50;24.77;58.41
67862;DHT22;54665;51.462;6.698;2023-05-21T12:02:18;25.09;57.13
67862;DHT22;54665;51.462;6.698;2023-05-21T12:04:45;24.90;57.75
67862;DHT22;54665;51.462;6.698;2023-05-21T12:07:11;24.86;58.06
67862;DHT22;54665;51.462;6.698;2023-05-21T12:09:40;25.30;55.23
67862;DHT22;54665;51.462;6.698;2023-05-21T12:12:10;26.31;52.42
67862;DHT22;54665;51.462;6.698;2023-05-21T12:14:36;26.61;52.22
67862;DHT22;54665;51.462;6.698;2023-05-21T12:17:03;26.67;53.06
67862;DHT22;54665;51.462;6.698;2023-05-21T12:19:33;26.60;52.46
67862;DHT22;54665;51.462;6.698;2023-05-21T12:22:02;26.96;53.81
67862;DHT22;54665;51.462;6.698;2023-05-21T12:24:28;27.15;53.63
67862;DHT22;54665;51.462;6.698;2023-05-21T12:26:55;27.44;51.88
67862;DHT22;54665;51.462;6.698;2023-05-21T12:29:25;27.23;53.25
67862;DHT22;54665;51.462;6.698;2023-05-21T12:31:51;27.35;52.09
67862;DHT22;54665;51.462;6.698;2023-05-21T12:34:39;27.10;52.42
67862;DHT22;54665;51.462;6.698;2023-05-21T12:37:06;26.83;51.95
67862;DHT22;54665;51.462;6.698;2023-05-21T12:39:58;27.33;50.64
67862;DHT22;54665;51.462;6.698;2023-05-21T12:42:32;27.01;53.96
67862;DHT22;54665;51.462;6.698;2023-05-21T12:45:08;26.98;51.84
67862;DHT22;54665;51.462;6.698;2023-05-21T12:47:34;27.18;51.49
67862;DHT22;54665;51.462;6.698;2023-05-21T12:50:02;27.59;52.32
67862;DHT22;54665;51.462;6.698;2023-05-21T12:52:28;27.06;51.44
67862;DHT22;54665;51.462;6.698;2023-05-21T12:54:57;26.96;52.78
67862;DHT22;54665;51.462;6.698;2023-05-21T12:57:25;26.52;54.49
67862;DHT22;54665;51.462;6.698;2023-05-21T12:59:56;27.42;52.16
67862;DHT22;54665;51.462;6.698;2023-05-21T13:02:25;27.51;50.86
67862;DHT22;54665;51.462;6.698;2023-05-21T13:07:21;26.72;53.00
67862;DHT22;54665;51.462;6.698;2023-05-21T13:09:46;26.61;53.00
67862;DHT22;54665;51.462;6.698;2023-05-21T13:12:12;26.79;52.63
67862;DHT22;54665;51.462;6.698;2023-05-21T13:14:38;27.68;51.30
67862;DHT22;54665;51.462;6.698;2023-05-21T13:17:03;27.68;52.68
67862;DHT22;54665;51.462;6.698;2023-05-21T13:19:29;27.23;52.58
67862;DHT22;54665;51.462;6.698;2023-05-21T13:21:54;27.21;52.02
67862;DHT22;54665;51.462;6.698;2023-05-21T13:24:20;27.38;53.48
67862;DHT22;54665;51.462;6.698;2023-05-21T13:26:45;27.54;50.86
67862;DHT22;54665;51.462;6.698;2023-05-21T13:29:10;27.92;50.88
67862;DHT22;54665;51.462;6.698;2023-05-21T13:31:40;28.05;50.41
67862;DHT22;54665;51.462;6.698;2023-05-21T13:34:05;27.77;49.65
67862;DHT22;54665;51.462;6.698;2023-05-21T13:36:32;28.47;47.26
67862;DHT22;54665;51.462;6.698;2023-05-21T13:38:57;28.32;48.87
67862;DHT22;54665;51.462;6.698;2023-05-21T13:41:23;28.67;47.70
67862;DHT22;54665;51.462;6.698;2023-05-21T13:43:48;29.08;46.71
67862;DHT22;54665;51.462;6.698;2023-05-21T13:46:13;29.16;48.55
67862;DHT22;54665;51.462;6.698;2023-05-21T13:48:39;29.21;48.16
67862;DHT22;54665;51.462;6.698;2023-05-21T13:51:06;28.20;48.54
67862;DHT22;54665;51.462;6.698;2023-05-21T13:53:31;28.16;48.23
67862;DHT22;54665;51.462;6.698;2023-05-21T13:55:57;28.37;48.46
67862;DHT22;54665;51.462;6.698;2023-05-21T13:58:22;28.41;49.12
67862;DHT22;54665;51.462;6.698;2023-05-21T14:00:48;28.97;47.89
67862;DHT22;54665;51.462;6.698;2023-05-21T14:03:13;28.92;47.34
67862;DHT22;54665;51.462;6.698;2023-05-21T14:05:38;28.67;48.17
67862;DHT22;54665;51.462;6.698;2023-05-21T14:08:04;28.53;48.95
67862;DHT22;54665;51.462;6.698;2023-05-21T14:10:29;28.77;48.05
67862;DHT22;54665;51.462;6.698;2023-05-21T14:12:54;28.30;49.55
67862;DHT22;54665;51.462;6.698;2023-05-21T14:15:21;28.16;49.68
67862;DHT22;54665;51.462;6.698;2023-05-21T14:17:46;28.39;48.88
67862;DHT22;54665;51.462;6.698;2023-05-21T14:20:11;28.59;47.53
67862;DHT22;54665;51.462;6.698;2023-05-21T14:22:37;29.32;48.87
67862;DHT22;54665;51.462;6.698;2023-05-21T14:25:02;29.73;47.16
67862;DHT22;54665;51.462;6.698;2023-05-21T14:27:28;29.86;46.84
67862;DHT22;54665;51.462;6.698;2023-05-21T14:29:54;29.83;45.54
67862;DHT22;54665;51.462;6.698;2023-05-21T14:32:19;29.62;45.44
67862;DHT22;54665;51.462;6.698;2023-05-21T14:34:45;30.18;46.14
67862;DHT22;54665;51.462;6.698;2023-05-21T14:37:10;30.00;44.39
67862;DHT22;54665;51.462;6.698;2023-05-21T14:39:35;29.67;46.39
67862;DHT22;54665;51.462;6.698;2023-05-21T14:42:02;30.49;45.72
67862;DHT22;54665;51.462;6.698;2023-05-21T14:44:28;30.07;45.81
67862;DHT22;54665;51.462;6.698;2023-05-21T14:46:54;29.93;46.15
67862;DHT22;54665;51.462;6.698;2023-05-21T14:49:19;30.01;45.17
67862;DHT22;54665;51.462;6.698;2023-05-21T14:51:44;29.14;47.72
67862;DHT22;54665;51.462;6.698;2023-05-21T14:54:11;29.11;47.39
67862;DHT22;54665;51.462;6.698;2023-05-21T14:56:37;29.46;47.46
67862;DHT22;54665;51.462;6.698;2023-05-21T14:59:02;29.55;45.84
67862;DHT22;54665;51.462;6.698;2023-05-21T15:01:27;29.19;48.82
67862;DHT22;54665;51.462;6.698;2023-05-21T15:03:53;30.06;47.01
67862;DHT22;54665;51.462;6.698;2023-05-21T15:06:21;30.09;46.22
67862;DHT22;54665;51.462;6.698;2023-05-21T15:08:46;29.84;44.69
67862;DHT22;54665;51.462;6.698;2023-05-21T15:11:11;30.01;45.43
67862;DHT22;54665;51.462;6.698;2023-05-21T15:13:37;30.61;45.84
67862;DHT22;54665;51.462;6.698;2023-05-21T15:16:03;29.50;45.27
67862;DHT22;54665;51.462;6.698;2023-05-21T15:18:28;28.46;47.72
67862;DHT22;54665;51.462;6.698;2023-05-21T15:20:54;29.16;47.45
67862;DHT22;54665;51.462;6.698;2023-05-21T15:23:19;29.04;48.36
67862;DHT22;54665;51.462;6.698;2023-05-21T15:25:45;29.12;47.45
67862;DHT22;54665;51.462;6.698;2023-05-21T15:28:10;29.05;48.09
67862;DHT22;54665;51.462;6.698;2023-05-21T15:30:38;29.05;48.18
67862;DHT22;54665;51.462;6.698;2023-05-21T15:33:04;29.50;48.31
67862;DHT22;54665;51.462;6.698;2023-05-21T15:35:29;30.13;47.53
67862;DHT22;54665;51.462;6.698;2023-05-21T15:37:55;29.38;47.33
67862;DHT22;54665;51.462;6.698;2023-05-21T15:40:20;29.09;48.73
67862;DHT22;54665;51.462;6.698;2023-05-21T15:42:46;28.91;49.35
67862;DHT22;54665;51.462;6.698;2023-05-21T15:45:11;29.18;48.76
67862;DHT22;54665;51.462;6.698;2023-05-21T15:47:39;28.14;50.38
67862;DHT22;54665;51.462;6.698;2023-05-21T15:50:08;28.12;49.14
67862;DHT22;54665;51.462;6.698;2023-05-21T15:52:34;28.40;49.31
67862;DHT22;54665;51.462;6.698;2023-05-21T15:54:59;27.65;51.26
67862;DHT22;54665;51.462;6.698;2023-05-21T15:57:24;27.45;51.69
67862;DHT22;54665;51.462;6.698;2023-05-21T15:59:50;26.36;55.10
67862;DHT22;54665;51.462;6.698;2023-05-21T16:02:16;26.55;54.35
67862;DHT22;54665;51.462;6.698;2023-05-21T16:04:42;26.29;54.47
67862;DHT22;54665;51.462;6.698;2023-05-21T16:07:07;26.47;54.61